sensor_id;sensor_type;location;lat;lon;timestamp;P1;durP1;ratioP1;P2;durP2;ratioP2
84723;SDS011;74944;52.322;16.918;2024-02-21T00:02:29;16.00;;;5.43;;
84723;SDS011;74944;52.322;16.918;2024-02-21T00:04:55;16.63;;;4.80;;
84723;SDS011;74944;52.322;16.918;2024-02-21T00:07:20;16.77;;;5.25;;
84723;SDS011;74944;52.322;16.918;2024-02-21T00:09:46;22.73;;;5.80;;
84723;SDS011;74944;52.322;16.918;2024-02-21T00:12:12;17.73;;;5.20;;
84723;SDS011;74944;52.322;16.918;2024-02-21T00:14:39;16.30;;;5.65;;
84723;SDS011;74944;52.322;16.918;2024-02-21T00:17:06;21.60;;;5.50;;
84723;SDS011;74944;52.322;16.918;2024-02-21T00:19:34;22.10;;;6.28;;
84723;SDS011;74944;52.322;16.918;2024-02-21T00:22:00;20.10;;;5.72;;
84723;SDS011;74944;52.322;16.918;2024-02-21T00:24:26;22.65;;;5.82;;
84723;SDS011;74944;52.322;16.918;2024-02-21T00:26:51;25.65;;;6.50;;
84723;SDS011;74944;52.322;16.918;2024-02-21T00:29:17;27.05;;;6.80;;
84723;SDS011;74944;52.322;16.918;2024-02-21T00:31:42;26.38;;;6.93;;
84723;SDS011;74944;52.322;16.918;2024-02-21T00:34:10;20.92;;;6.50;;
84723;SDS011;74944;52.322;16.918;2024-02-21T00:36:36;23.08;;;6.53;;
84723;SDS011;74944;52.322;16.918;2024-02-21T00:39:02;28.83;;;6.60;;
84723;SDS011;74944;52.322;16.918;2024-02-21T00:41:27;18.63;;;6.65;;
84723;SDS011;74944;52.322;16.918;2024-02-21T00:43:53;25.23;;;10.30;;
84723;SDS011;74944;52.322;16.918;2024-02-21T00:46:19;36.53;;;12.20;;
84723;SDS011;74944;52.322;16.918;2024-02-21T00:48:44;38.80;;;12.63;;
84723;SDS011;74944;52.322;16.918;2024-02-21T00:51:10;34.60;;;12.63;;
84723;SDS011;74944;52.322;16.918;2024-02-21T00:53:35;20.73;;;7.72;;
84723;SDS011;74944;52.322;16.918;2024-02-21T00:56:04;31.73;;;6.97;;
84723;SDS011;74944;52.322;16.918;2024-02-21T00:58:31;23.45;;;8.82;;
84723;SDS011;74944;52.322;16.918;2024-02-21T01:00:56;24.17;;;7.40;;
84723;SDS011;74944;52.322;16.918;2024-02-21T01:03:22;19.63;;;7.05;;
84723;SDS011;74944;52.322;16.918;2024-02-21T01:05:48;21.98;;;7.03;;
84723;SDS011;74944;52.322;16.918;2024-02-21T01:08:15;22.55;;;6.20;;
84723;SDS011;74944;52.322;16.918;2024-02-21T01:10:40;23.65;;;6.40;;
84723;SDS011;74944;52.322;16.918;2024-02-21T01:13:06;24.55;;;6.18;;
84723;SDS011;74944;52.322;16.918;2024-02-21T01:15:32;25.10;;;6.32;;
84723;SDS011;74944;52.322;16.918;2024-02-21T01:17:58;26.42;;;7.88;;
84723;SDS011;74944;52.322;16.918;2024-02-21T01:20:24;33.88;;;10.73;;
84723;SDS011;74944;52.322;16.918;2024-02-21T01:22:49;28.63;;;9.05;;
84723;SDS011;74944;52.322;16.918;2024-02-21T01:25:15;31.13;;;9.13;;
84723;SDS011;74944;52.322;16.918;2024-02-21T01:27:41;25.55;;;8.80;;
84723;SDS011;74944;52.322;16.918;2024-02-21T01:30:07;25.85;;;9.27;;
84723;SDS011;74944;52.322;16.918;2024-02-21T01:32:33;23.60;;;6.88;;
84723;SDS011;74944;52.322;16.918;2024-02-21T01:34:59;25.42;;;8.48;;
84723;SDS011;74944;52.322;16.918;2024-02-21T01:37:24;28.77;;;8.38;;
84723;SDS011;74944;52.322;16.918;2024-02-21T01:39:50;25.60;;;7.15;;
84723;SDS011;74944;52.322;16.918;2024-02-21T01:42:16;26.48;;;7.25;;
84723;SDS011;74944;52.322;16.918;2024-02-21T01:44:41;23.48;;;6.63;;
84723;SDS011;74944;52.322;16.918;2024-02-21T01:47:07;23.52;;;6.28;;
84723;SDS011;74944;52.322;16.918;2024-02-21T01:49:33;18.30;;;6.25;;
84723;SDS011;74944;52.322;16.918;2024-02-21T01:51:59;27.33;;;6.93;;
84723;SDS011;74944;52.322;16.918;2024-02-21T01:54:26;24.35;;;5.60;;
84723;SDS011;74944;52.322;16.918;2024-02-21T01:56:54;21.55;;;7.03;;
84723;SDS011;74944;52.322;16.918;2024-02-21T01:59:19;22.90;;;6.47;;
84723;SDS011;74944;52.322;16.918;2024-02-21T02:01:47;26.05;;;5.88;;
84723;SDS011;74944;52.322;16.918;2024-02-21T02:04:13;22.05;;;6.43;;
84723;SDS011;74944;52.322;16.918;2024-02-21T02:06:39;24.27;;;5.18;;
84723;SDS011;74944;52.322;16.918;2024-02-21T02:09:06;21.20;;;4.78;;
84723;SDS011;74944;52.322;16.918;2024-02-21T02:11:32;20.20;;;5.93;;
84723;SDS011;74944;52.322;16.918;2024-02-21T02:13:58;21.45;;;5.78;;
84723;SDS011;74944;52.322;16.918;2024-02-21T02:16:24;23.45;;;6.65;;
84723;SDS011;74944;52.322;16.918;2024-02-21T02:18:49;23.58;;;6.53;;
84723;SDS011;74944;52.322;16.918;2024-02-21T02:21:22;21.23;;;5.82;;
84723;SDS011;74944;52.322;16.918;2024-02-21T02:23:52;18.25;;;5.57;;
84723;SDS011;74944;52.322;16.918;2024-02-21T02:26:18;14.25;;;4.85;;
84723;SDS011;74944;52.322;16.918;2024-02-21T02:28:44;20.33;;;6.00;;
84723;SDS011;74944;52.322;16.918;2024-02-21T02:31:09;21.17;;;5.18;;
84723;SDS011;74944;52.322;16.918;2024-02-21T02:33:35;22.63;;;5.65;;
84723;SDS011;74944;52.322;16.918;2024-02-21T02:36:00;21.33;;;5.70;;
84723;SDS011;74944;52.322;16.918;2024-02-21T02:38:26;16.80;;;6.63;;
84723;SDS011;74944;52.322;16.918;2024-02-21T02:40:52;22.25;;;5.40;;
84723;SDS011;74944;52.322;16.918;2024-02-21T02:43:17;21.42;;;6.60;;
84723;SDS011;74944;52.322;16.918;2024-02-21T02:45:43;25.75;;;5.63;;
84723;SDS011;74944;52.322;16.918;2024-02-21T02:48:08;22.50;;;6.30;;
84723;SDS011;74944;52.322;16.918;2024-02-21T02:50:34;18.77;;;6.03;;
84723;SDS011;74944;52.322;16.918;2024-02-21T02:53:00;22.23;;;5.32;;
84723;SDS011;74944;52.322;16.918;2024-02-21T02:55:26;23.38;;;7.40;;
84723;SDS011;74944;52.322;16.918;2024-02-21T02:57:51;25.63;;;6.13;;
84723;SDS011;74944;52.322;16.918;2024-02-21T03:00:17;22.50;;;6.28;;
84723;SDS011;74944;52.322;16.918;2024-02-21T03:02:43;18.85;;;5.60;;
84723;SDS011;74944;52.322;16.918;2024-02-21T03:05:14;24.40;;;6.35;;
84723;SDS011;74944;52.322;16.918;2024-02-21T03:07:41;26.00;;;5.95;;
84723;SDS011;74944;52.322;16.918;2024-02-21T03:10:08;23.25;;;7.47;;
84723;SDS011;74944;52.322;16.918;2024-02-21T03:12:34;24.52;;;6.78;;
84723;SDS011;74944;52.322;16.918;2024-02-21T03:15:00;21.98;;;6.97;;
84723;SDS011;74944;52.322;16.918;2024-02-21T03:17:26;20.45;;;7.05;;
84723;SDS011;74944;52.322;16.918;2024-02-21T03:19:55;23.42;;;6.53;;
84723;SDS011;74944;52.322;16.918;2024-02-21T03:22:21;24.80;;;6.78;;
84723;SDS011;74944;52.322;16.918;2024-02-21T03:24:47;25.92;;;7.45;;
84723;SDS011;74944;52.322;16.918;2024-02-21T03:27:13;25.75;;;7.32;;
84723;SDS011;74944;52.322;16.918;2024-02-21T03:29:39;28.10;;;6.43;;
84723;SDS011;74944;52.322;16.918;2024-02-21T03:32:04;19.98;;;6.07;;
84723;SDS011;74944;52.322;16.918;2024-02-21T03:34:30;22.98;;;5.32;;
84723;SDS011;74944;52.322;16.918;2024-02-21T03:36:56;19.27;;;6.53;;
84723;SDS011;74944;52.322;16.918;2024-02-21T03:39:21;28.45;;;7.75;;
84723;SDS011;74944;52.322;16.918;2024-02-21T03:41:47;29.35;;;7.50;;
84723;SDS011;74944;52.322;16.918;2024-02-21T03:44:13;27.67;;;7.07;;
84723;SDS011;74944;52.322;16.918;2024-02-21T03:46:38;22.60;;;6.40;;
84723;SDS011;74944;52.322;16.918;2024-02-21T03:49:04;20.70;;;6.32;;
84723;SDS011;74944;52.322;16.918;2024-02-21T03:51:30;28.52;;;8.05;;
84723;SDS011;74944;52.322;16.918;2024-02-21T03:53:56;26.13;;;7.20;;
84723;SDS011;74944;52.322;16.918;2024-02-21T03:56:21;18.40;;;5.93;;
84723;SDS011;74944;52.322;16.918;2024-02-21T03:58:47;19.20;;;5.10;;
84723;SDS011;74944;52.322;16.918;2024-02-21T04:01:14;17.30;;;5.57;;
84723;SDS011;74944;52.322;16.918;2024-02-21T04:03:41;18.83;;;6.20;;
84723;SDS011;74944;52.322;16.918;2024-02-21T04:06:08;19.38;;;5.95;;
84723;SDS011;74944;52.322;16.918;2024-02-21T04:08:34;24.20;;;5.75;;
84723;SDS011;74944;52.322;16.918;2024-02-21T04:10:59;20.10;;;5.95;;
84723;SDS011;74944;52.322;16.918;2024-02-21T04:13:25;22.33;;;5.95;;
84723;SDS011;74944;52.322;16.918;2024-02-21T04:15:51;15.18;;;5.35;;
84723;SDS011;74944;52.322;16.918;2024-02-21T04:18:16;19.08;;;6.97;;
84723;SDS011;74944;52.322;16.918;2024-02-21T04:20:42;26.63;;;6.45;;
84723;SDS011;74944;52.322;16.918;2024-02-21T04:23:08;28.73;;;8.73;;
84723;SDS011;74944;52.322;16.918;2024-02-21T04:25:33;24.60;;;7.00;;
84723;SDS011;74944;52.322;16.918;2024-02-21T04:27:59;28.35;;;8.07;;
84723;SDS011;74944;52.322;16.918;2024-02-21T04:30:25;26.00;;;7.93;;
84723;SDS011;74944;52.322;16.918;2024-02-21T04:32:50;19.92;;;6.07;;
84723;SDS011;74944;52.322;16.918;2024-02-21T04:35:16;16.55;;;5.30;;
84723;SDS011;74944;52.322;16.918;2024-02-21T04:37:42;20.92;;;6.28;;
84723;SDS011;74944;52.322;16.918;2024-02-21T04:40:07;19.00;;;6.47;;
84723;SDS011;74944;52.322;16.918;2024-02-21T04:42:34;17.05;;;6.47;;
84723;SDS011;74944;52.322;16.918;2024-02-21T04:45:00;34.13;;;10.85;;
84723;SDS011;74944;52.322;16.918;2024-02-21T04:47:26;28.17;;;10.48;;
84723;SDS011;74944;52.322;16.918;2024-02-21T04:49:52;31.95;;;10.75;;
84723;SDS011;74944;52.322;16.918;2024-02-21T04:52:18;34.15;;;13.90;;
84723;SDS011;74944;52.322;16.918;2024-02-21T04:54:43;28.67;;;9.85;;
84723;SDS011;74944;52.322;16.918;2024-02-21T04:57:09;71.80;;;29.27;;
84723;SDS011;74944;52.322;16.918;2024-02-21T04:59:42;52.15;;;19.60;;
84723;SDS011;74944;52.322;16.918;2024-02-21T05:02:10;70.22;;;25.25;;
84723;SDS011;74944;52.322;16.918;2024-02-21T05:04:36;55.58;;;17.50;;
84723;SDS011;74944;52.322;16.918;2024-02-21T05:07:04;59.33;;;23.13;;
84723;SDS011;74944;52.322;16.918;2024-02-21T05:09:29;41.97;;;15.40;;
84723;SDS011;74944;52.322;16.918;2024-02-21T05:11:55;39.30;;;12.38;;
84723;SDS011;74944;52.322;16.918;2024-02-21T05:14:20;33.42;;;14.02;;
84723;SDS011;74944;52.322;16.918;2024-02-21T05:16:46;34.95;;;9.77;;
84723;SDS011;74944;52.322;16.918;2024-02-21T05:19:12;39.03;;;11.73;;
84723;SDS011;74944;52.322;16.918;2024-02-21T05:21:38;31.75;;;9.27;;
84723;SDS011;74944;52.322;16.918;2024-02-21T05:24:03;27.98;;;10.63;;
84723;SDS011;74944;52.322;16.918;2024-02-21T05:26:29;27.10;;;7.88;;
84723;SDS011;74944;52.322;16.918;2024-02-21T05:28:55;17.13;;;7.32;;
84723;SDS011;74944;52.322;16.918;2024-02-21T05:31:21;25.00;;;6.90;;
84723;SDS011;74944;52.322;16.918;2024-02-21T05:33:46;23.30;;;6.30;;
84723;SDS011;74944;52.322;16.918;2024-02-21T05:36:13;18.25;;;6.13;;
84723;SDS011;74944;52.322;16.918;2024-02-21T05:38:38;26.05;;;6.13;;
84723;SDS011;74944;52.322;16.918;2024-02-21T05:41:04;22.60;;;6.75;;
84723;SDS011;74944;52.322;16.918;2024-02-21T05:43:30;23.90;;;7.35;;
84723;SDS011;74944;52.322;16.918;2024-02-21T05:45:56;23.63;;;7.22;;
84723;SDS011;74944;52.322;16.918;2024-02-21T05:48:22;21.88;;;7.25;;
84723;SDS011;74944;52.322;16.918;2024-02-21T05:50:49;21.77;;;6.30;;
84723;SDS011;74944;52.322;16.918;2024-02-21T05:53:14;15.35;;;5.82;;
84723;SDS011;74944;52.322;16.918;2024-02-21T05:55:40;24.67;;;6.88;;
84723;SDS011;74944;52.322;16.918;2024-02-21T05:58:06;24.58;;;6.63;;
84723;SDS011;74944;52.322;16.918;2024-02-21T06:00:34;17.65;;;6.18;;
84723;SDS011;74944;52.322;16.918;2024-02-21T06:03:00;25.35;;;6.93;;
84723;SDS011;74944;52.322;16.918;2024-02-21T06:05:26;22.60;;;7.18;;
84723;SDS011;74944;52.322;16.918;2024-02-21T06:07:51;18.63;;;5.88;;
84723;SDS011;74944;52.322;16.918;2024-02-21T06:10:17;17.98;;;5.78;;
84723;SDS011;74944;52.322;16.918;2024-02-21T06:12:42;17.25;;;8.38;;
84723;SDS011;74944;52.322;16.918;2024-02-21T06:15:08;24.63;;;8.43;;
84723;SDS011;74944;52.322;16.918;2024-02-21T06:17:34;26.25;;;7.65;;
84723;SDS011;74944;52.322;16.918;2024-02-21T06:20:00;21.30;;;6.55;;
84723;SDS011;74944;52.322;16.918;2024-02-21T06:22:25;19.90;;;6.25;;
84723;SDS011;74944;52.322;16.918;2024-02-21T06:24:51;18.40;;;6.57;;
84723;SDS011;74944;52.322;16.918;2024-02-21T06:27:19;21.80;;;6.60;;
84723;SDS011;74944;52.322;16.918;2024-02-21T06:29:45;20.80;;;7.15;;
84723;SDS011;74944;52.322;16.918;2024-02-21T06:32:11;21.00;;;6.90;;
84723;SDS011;74944;52.322;16.918;2024-02-21T06:34:36;20.70;;;7.80;;
84723;SDS011;74944;52.322;16.918;2024-02-21T06:37:02;21.35;;;6.60;;
84723;SDS011;74944;52.322;16.918;2024-02-21T06:39:29;22.65;;;6.03;;
84723;SDS011;74944;52.322;16.918;2024-02-21T06:41:54;21.50;;;8.02;;
84723;SDS011;74944;52.322;16.918;2024-02-21T06:44:22;21.73;;;6.95;;
84723;SDS011;74944;52.322;16.918;2024-02-21T06:46:48;20.88;;;7.45;;
84723;SDS011;74944;52.322;16.918;2024-02-21T06:49:14;17.27;;;7.85;;
84723;SDS011;74944;52.322;16.918;2024-02-21T06:51:42;23.58;;;7.05;;
84723;SDS011;74944;52.322;16.918;2024-02-21T06:54:08;20.85;;;7.03;;
84723;SDS011;74944;52.322;16.918;2024-02-21T06:56:35;21.67;;;6.43;;
84723;SDS011;74944;52.322;16.918;2024-02-21T06:59:02;20.58;;;7.10;;
84723;SDS011;74944;52.322;16.918;2024-02-21T07:01:31;15.55;;;5.97;;
84723;SDS011;74944;52.322;16.918;2024-02-21T07:03:57;20.08;;;5.45;;
84723;SDS011;74944;52.322;16.918;2024-02-21T07:06:22;16.15;;;5.82;;
84723;SDS011;74944;52.322;16.918;2024-02-21T07:08:49;16.08;;;5.82;;
84723;SDS011;74944;52.322;16.918;2024-02-21T07:11:14;18.23;;;6.20;;
84723;SDS011;74944;52.322;16.918;2024-02-21T07:13:40;13.73;;;5.45;;
84723;SDS011;74944;52.322;16.918;2024-02-21T07:16:06;15.68;;;5.43;;
84723;SDS011;74944;52.322;16.918;2024-02-21T07:18:32;20.15;;;5.55;;
84723;SDS011;74944;52.322;16.918;2024-02-21T07:20:58;14.32;;;5.35;;
84723;SDS011;74944;52.322;16.918;2024-02-21T07:23:24;16.67;;;5.78;;
84723;SDS011;74944;52.322;16.918;2024-02-21T07:25:49;22.25;;;5.45;;
84723;SDS011;74944;52.322;16.918;2024-02-21T07:28:15;16.05;;;5.60;;
84723;SDS011;74944;52.322;16.918;2024-02-21T07:30:41;20.50;;;5.30;;
84723;SDS011;74944;52.322;16.918;2024-02-21T07:33:07;14.88;;;5.13;;
84723;SDS011;74944;52.322;16.918;2024-02-21T07:35:33;13.05;;;5.07;;
84723;SDS011;74944;52.322;16.918;2024-02-21T07:37:59;20.15;;;5.45;;
84723;SDS011;74944;52.322;16.918;2024-02-21T07:40:24;17.20;;;5.47;;
84723;SDS011;74944;52.322;16.918;2024-02-21T07:42:50;17.83;;;6.03;;
84723;SDS011;74944;52.322;16.918;2024-02-21T07:45:16;16.48;;;6.18;;
84723;SDS011;74944;52.322;16.918;2024-02-21T07:47:46;16.77;;;5.10;;
84723;SDS011;74944;52.322;16.918;2024-02-21T07:50:11;18.60;;;5.70;;
84723;SDS011;74944;52.322;16.918;2024-02-21T07:52:37;19.80;;;6.10;;
84723;SDS011;74944;52.322;16.918;2024-02-21T07:55:03;18.98;;;5.88;;
84723;SDS011;74944;52.322;16.918;2024-02-21T07:57:30;19.10;;;5.78;;
84723;SDS011;74944;52.322;16.918;2024-02-21T07:59:55;15.75;;;5.70;;
84723;SDS011;74944;52.322;16.918;2024-02-21T08:02:21;17.08;;;5.72;;
84723;SDS011;74944;52.322;16.918;2024-02-21T08:04:46;18.13;;;6.03;;
84723;SDS011;74944;52.322;16.918;2024-02-21T08:07:12;22.13;;;6.05;;
84723;SDS011;74944;52.322;16.918;2024-02-21T08:09:40;16.42;;;5.03;;
84723;SDS011;74944;52.322;16.918;2024-02-21T08:12:06;17.75;;;5.18;;
84723;SDS011;74944;52.322;16.918;2024-02-21T08:14:31;20.13;;;6.78;;
84723;SDS011;74944;52.322;16.918;2024-02-21T08:16:57;18.17;;;5.30;;
84723;SDS011;74944;52.322;16.918;2024-02-21T08:19:24;17.83;;;6.10;;
84723;SDS011;74944;52.322;16.918;2024-02-21T08:21:50;18.10;;;5.38;;
84723;SDS011;74944;52.322;16.918;2024-02-21T08:24:18;19.50;;;5.60;;
84723;SDS011;74944;52.322;16.918;2024-02-21T08:26:45;17.92;;;5.43;;
84723;SDS011;74944;52.322;16.918;2024-02-21T08:29:13;14.63;;;4.95;;
84723;SDS011;74944;52.322;16.918;2024-02-21T08:31:39;17.52;;;5.40;;
84723;SDS011;74944;52.322;16.918;2024-02-21T08:34:05;16.08;;;5.50;;
84723;SDS011;74944;52.322;16.918;2024-02-21T08:36:34;13.20;;;5.07;;
84723;SDS011;74944;52.322;16.918;2024-02-21T08:39:00;19.42;;;4.97;;
84723;SDS011;74944;52.322;16.918;2024-02-21T08:41:31;20.42;;;7.15;;
84723;SDS011;74944;52.322;16.918;2024-02-21T08:43:57;17.23;;;4.70;;
84723;SDS011;74944;52.322;16.918;2024-02-21T08:46:25;14.93;;;5.45;;
84723;SDS011;74944;52.322;16.918;2024-02-21T08:48:52;20.33;;;5.60;;
84723;SDS011;74944;52.322;16.918;2024-02-21T08:51:21;14.82;;;5.50;;
84723;SDS011;74944;52.322;16.918;2024-02-21T08:53:46;15.00;;;5.50;;
84723;SDS011;74944;52.322;16.918;2024-02-21T08:56:13;14.88;;;5.35;;
84723;SDS011;74944;52.322;16.918;2024-02-21T08:58:41;17.33;;;5.20;;
84723;SDS011;74944;52.322;16.918;2024-02-21T09:01:07;13.82;;;6.18;;
84723;SDS011;74944;52.322;16.918;2024-02-21T09:03:38;15.77;;;6.32;;
84723;SDS011;74944;52.322;16.918;2024-02-21T09:06:05;16.83;;;5.95;;
84723;SDS011;74944;52.322;16.918;2024-02-21T09:08:32;15.32;;;5.78;;
84723;SDS011;74944;52.322;16.918;2024-02-21T09:10:59;21.48;;;5.82;;
84723;SDS011;74944;52.322;16.918;2024-02-21T09:13:28;21.83;;;5.80;;
84723;SDS011;74944;52.322;16.918;2024-02-21T09:15:56;28.08;;;6.70;;
84723;SDS011;74944;52.322;16.918;2024-02-21T09:18:22;19.15;;;6.05;;
84723;SDS011;74944;52.322;16.918;2024-02-21T09:20:48;20.73;;;7.40;;
84723;SDS011;74944;52.322;16.918;2024-02-21T09:23:13;18.35;;;7.18;;
84723;SDS011;74944;52.322;16.918;2024-02-21T09:25:44;17.50;;;6.40;;
84723;SDS011;74944;52.322;16.918;2024-02-21T09:28:16;16.80;;;5.13;;
84723;SDS011;74944;52.322;16.918;2024-02-21T09:30:42;17.63;;;6.32;;
84723;SDS011;74944;52.322;16.918;2024-02-21T09:33:10;18.17;;;5.75;;
84723;SDS011;74944;52.322;16.918;2024-02-21T09:35:36;15.80;;;4.38;;
84723;SDS011;74944;52.322;16.918;2024-02-21T09:38:02;16.95;;;5.45;;
84723;SDS011;74944;52.322;16.918;2024-02-21T09:40:28;12.38;;;6.13;;
84723;SDS011;74944;52.322;16.918;2024-02-21T09:43:03;20.55;;;6.05;;
84723;SDS011;74944;52.322;16.918;2024-02-21T09:45:30;18.77;;;6.20;;
84723;SDS011;74944;52.322;16.918;2024-02-21T09:48:08;15.82;;;5.30;;
84723;SDS011;74944;52.322;16.918;2024-02-21T09:50:56;10.73;;;4.68;;
84723;SDS011;74944;52.322;16.918;2024-02-21T09:53:23;16.77;;;5.47;;
84723;SDS011;74944;52.322;16.918;2024-02-21T09:55:50;17.33;;;5.25;;
84723;SDS011;74944;52.322;16.918;2024-02-21T09:58:22;17.58;;;6.03;;
84723;SDS011;74944;52.322;16.918;2024-02-21T10:00:54;19.83;;;6.57;;
84723;SDS011;74944;52.322;16.918;2024-02-21T10:03:20;18.52;;;6.50;;
84723;SDS011;74944;52.322;16.918;2024-02-21T10:05:48;14.80;;;6.47;;
84723;SDS011;74944;52.322;16.918;2024-02-21T10:08:17;13.10;;;5.88;;
84723;SDS011;74944;52.322;16.918;2024-02-21T10:10:44;17.85;;;6.22;;
84723;SDS011;74944;52.322;16.918;2024-02-21T10:13:10;23.48;;;6.38;;
84723;SDS011;74944;52.322;16.918;2024-02-21T10:15:47;18.85;;;6.53;;
84723;SDS011;74944;52.322;16.918;2024-02-21T10:18:18;17.77;;;7.00;;
84723;SDS011;74944;52.322;16.918;2024-02-21T10:20:46;17.52;;;6.93;;
84723;SDS011;74944;52.322;16.918;2024-02-21T10:23:12;16.02;;;5.95;;
84723;SDS011;74944;52.322;16.918;2024-02-21T10:25:38;17.52;;;6.50;;
84723;SDS011;74944;52.322;16.918;2024-02-21T10:28:06;16.50;;;5.88;;
84723;SDS011;74944;52.322;16.918;2024-02-21T10:30:35;14.68;;;6.00;;
84723;SDS011;74944;52.322;16.918;2024-02-21T10:33:01;15.00;;;6.47;;
84723;SDS011;74944;52.322;16.918;2024-02-21T10:35:33;17.58;;;6.18;;
84723;SDS011;74944;52.322;16.918;2024-02-21T10:37:59;14.38;;;6.05;;
84723;SDS011;74944;52.322;16.918;2024-02-21T10:40:26;18.10;;;5.95;;
84723;SDS011;74944;52.322;16.918;2024-02-21T10:42:59;18.25;;;5.35;;
84723;SDS011;74944;52.322;16.918;2024-02-21T10:47:55;19.17;;;6.35;;
84723;SDS011;74944;52.322;16.918;2024-02-21T10:50:21;12.73;;;4.82;;
84723;SDS011;74944;52.322;16.918;2024-02-21T10:53:00;19.80;;;6.53;;
84723;SDS011;74944;52.322;16.918;2024-02-21T10:55:41;16.40;;;5.97;;
84723;SDS011;74944;52.322;16.918;2024-02-21T11:00:43;15.98;;;5.53;;
84723;SDS011;74944;52.322;16.918;2024-02-21T11:03:09;13.82;;;5.72;;
84723;SDS011;74944;52.322;16.918;2024-02-21T11:05:35;14.35;;;5.57;;
84723;SDS011;74944;52.322;16.918;2024-02-21T11:08:04;16.88;;;5.07;;
84723;SDS011;74944;52.322;16.918;2024-02-21T11:10:37;16.60;;;5.85;;
84723;SDS011;74944;52.322;16.918;2024-02-21T11:13:06;15.90;;;5.97;;
84723;SDS011;74944;52.322;16.918;2024-02-21T11:15:33;14.88;;;6.45;;
84723;SDS011;74944;52.322;16.918;2024-02-21T11:18:05;14.73;;;5.25;;
84723;SDS011;74944;52.322;16.918;2024-02-21T11:20:32;16.63;;;6.00;;
84723;SDS011;74944;52.322;16.918;2024-02-21T11:23:02;15.85;;;5.22;;
84723;SDS011;74944;52.322;16.918;2024-02-21T11:25:33;15.30;;;6.07;;
84723;SDS011;74944;52.322;16.918;2024-02-21T11:28:02;19.60;;;6.82;;
84723;SDS011;74944;52.322;16.918;2024-02-21T11:30:34;16.25;;;7.40;;
84723;SDS011;74944;52.322;16.918;2024-02-21T11:33:03;17.55;;;5.57;;
84723;SDS011;74944;52.322;16.918;2024-02-21T11:35:33;16.10;;;6.10;;
84723;SDS011;74944;52.322;16.918;2024-02-21T11:38:09;14.70;;;6.00;;
84723;SDS011;74944;52.322;16.918;2024-02-21T11:40:43;17.02;;;6.63;;
84723;SDS011;74944;52.322;16.918;2024-02-21T11:43:12;16.52;;;6.13;;
84723;SDS011;74944;52.322;16.918;2024-02-21T11:45:38;16.73;;;6.10;;
84723;SDS011;74944;52.322;16.918;2024-02-21T11:48:09;13.90;;;6.28;;
84723;SDS011;74944;52.322;16.918;2024-02-21T11:50:41;13.68;;;6.07;;
84723;SDS011;74944;52.322;16.918;2024-02-21T11:53:06;18.80;;;7.32;;
84723;SDS011;74944;52.322;16.918;2024-02-21T11:55:32;18.67;;;7.03;;
84723;SDS011;74944;52.322;16.918;2024-02-21T11:57:59;18.25;;;6.90;;
84723;SDS011;74944;52.322;16.918;2024-02-21T12:00:25;16.27;;;7.35;;
84723;SDS011;74944;52.322;16.918;2024-02-21T12:02:51;16.75;;;6.35;;
84723;SDS011;74944;52.322;16.918;2024-02-21T12:05:18;14.32;;;6.65;;
84723;SDS011;74944;52.322;16.918;2024-02-21T12:07:44;16.63;;;6.72;;
84723;SDS011;74944;52.322;16.918;2024-02-21T12:10:10;17.90;;;6.50;;
84723;SDS011;74944;52.322;16.918;2024-02-21T12:12:37;16.55;;;5.95;;
84723;SDS011;74944;52.322;16.918;2024-02-21T12:15:03;16.88;;;6.22;;
84723;SDS011;74944;52.322;16.918;2024-02-21T12:17:33;19.55;;;8.27;;
84723;SDS011;74944;52.322;16.918;2024-02-21T12:20:00;16.35;;;6.65;;
84723;SDS011;74944;52.322;16.918;2024-02-21T12:22:29;20.08;;;6.70;;
84723;SDS011;74944;52.322;16.918;2024-02-21T12:24:58;20.23;;;6.38;;
84723;SDS011;74944;52.322;16.918;2024-02-21T12:27:24;16.52;;;6.55;;
84723;SDS011;74944;52.322;16.918;2024-02-21T12:29:50;16.65;;;5.82;;
84723;SDS011;74944;52.322;16.918;2024-02-21T12:32:16;16.17;;;6.90;;
84723;SDS011;74944;52.322;16.918;2024-02-21T12:34:42;16.65;;;6.32;;
84723;SDS011;74944;52.322;16.918;2024-02-21T12:37:07;17.38;;;6.72;;
84723;SDS011;74944;52.322;16.918;2024-02-21T12:39:33;12.68;;;6.00;;
84723;SDS011;74944;52.322;16.918;2024-02-21T12:41:59;16.95;;;6.75;;
84723;SDS011;74944;52.322;16.918;2024-02-21T12:44:25;16.98;;;6.25;;
84723;SDS011;74944;52.322;16.918;2024-02-21T12:46:50;18.55;;;6.32;;
84723;SDS011;74944;52.322;16.918;2024-02-21T12:49:19;16.48;;;5.90;;
84723;SDS011;74944;52.322;16.918;2024-02-21T12:51:44;14.75;;;6.82;;
84723;SDS011;74944;52.322;16.918;2024-02-21T12:54:13;14.02;;;5.72;;
84723;SDS011;74944;52.322;16.918;2024-02-21T12:56:38;14.90;;;6.55;;
84723;SDS011;74944;52.322;16.918;2024-02-21T12:59:05;18.05;;;7.70;;
84723;SDS011;74944;52.322;16.918;2024-02-21T13:01:34;15.05;;;7.72;;
84723;SDS011;74944;52.322;16.918;2024-02-21T13:04:01;16.10;;;6.97;;
84723;SDS011;74944;52.322;16.918;2024-02-21T13:06:27;19.80;;;7.28;;
84723;SDS011;74944;52.322;16.918;2024-02-21T13:08:53;14.25;;;5.63;;
84723;SDS011;74944;52.322;16.918;2024-02-21T13:11:18;14.90;;;7.40;;
84723;SDS011;74944;52.322;16.918;2024-02-21T13:13:44;17.33;;;6.93;;
84723;SDS011;74944;52.322;16.918;2024-02-21T13:16:11;17.00;;;8.02;;
84723;SDS011;74944;52.322;16.918;2024-02-21T13:18:37;17.52;;;6.72;;
84723;SDS011;74944;52.322;16.918;2024-02-21T13:21:07;20.70;;;7.53;;
84723;SDS011;74944;52.322;16.918;2024-02-21T13:23:33;15.30;;;6.63;;
84723;SDS011;74944;52.322;16.918;2024-02-21T13:25:59;17.88;;;7.28;;
84723;SDS011;74944;52.322;16.918;2024-02-21T13:28:25;18.90;;;6.90;;
84723;SDS011;74944;52.322;16.918;2024-02-21T13:30:50;22.00;;;6.95;;
84723;SDS011;74944;52.322;16.918;2024-02-21T13:33:16;19.20;;;7.30;;
84723;SDS011;74944;52.322;16.918;2024-02-21T13:35:41;18.52;;;7.28;;
84723;SDS011;74944;52.322;16.918;2024-02-21T13:38:07;17.65;;;7.28;;
84723;SDS011;74944;52.322;16.918;2024-02-21T13:40:35;15.95;;;7.07;;
84723;SDS011;74944;52.322;16.918;2024-02-21T13:43:01;23.10;;;8.23;;
84723;SDS011;74944;52.322;16.918;2024-02-21T13:45:26;18.00;;;7.53;;
84723;SDS011;74944;52.322;16.918;2024-02-21T13:47:52;20.25;;;8.93;;
84723;SDS011;74944;52.322;16.918;2024-02-21T13:50:18;19.55;;;7.05;;
84723;SDS011;74944;52.322;16.918;2024-02-21T13:52:45;14.43;;;6.80;;
84723;SDS011;74944;52.322;16.918;2024-02-21T13:55:11;18.70;;;7.22;;
84723;SDS011;74944;52.322;16.918;2024-02-21T13:57:37;18.70;;;7.57;;
84723;SDS011;74944;52.322;16.918;2024-02-21T14:00:03;18.63;;;7.57;;
84723;SDS011;74944;52.322;16.918;2024-02-21T14:02:30;18.10;;;6.80;;
84723;SDS011;74944;52.322;16.918;2024-02-21T14:04:56;15.27;;;6.50;;
84723;SDS011;74944;52.322;16.918;2024-02-21T14:07:22;17.77;;;6.72;;
84723;SDS011;74944;52.322;16.918;2024-02-21T14:09:47;16.55;;;8.23;;
84723;SDS011;74944;52.322;16.918;2024-02-21T14:12:13;16.17;;;7.65;;
84723;SDS011;74944;52.322;16.918;2024-02-21T14:14:43;18.27;;;6.97;;
84723;SDS011;74944;52.322;16.918;2024-02-21T14:17:09;14.73;;;6.68;;
84723;SDS011;74944;52.322;16.918;2024-02-21T14:19:35;17.25;;;6.68;;
84723;SDS011;74944;52.322;16.918;2024-02-21T14:22:00;17.23;;;6.82;;
84723;SDS011;74944;52.322;16.918;2024-02-21T14:24:27;16.98;;;7.15;;